Time;durP1;ratioP1;P1;durP2;ratioP2;P2;SDS_P1;SDS_P2;PMS_P1;PMS_P2;Temp;Humidity;BMP_temperature;BMP_pressure;BME280_temperature;BME280_humidity;BME280_pressure;Samples;Min_cycle;Max_cycle;Signal;HPM_P1;HPM_P2
2022/10/14 00:01:22;;;;;;;1.70;1.60;;;20.50;99.90;;;;;;5017973;28;20199;-47
2022/10/14 00:03:50;;;;;;;1.80;1.70;;;20.50;99.90;;;;;;5014374;28;20608;-50
2022/10/14 00:06:19;;;;;;;2.00;1.80;;;20.50;99.90;;;;;;5014088;28;20224;-47
2022/10/14 00:08:47;;;;;;;2.92;2.22;;;20.50;99.90;;;;;;5018213;28;20199;-53
2022/10/14 00:11:16;;;;;;;1.90;1.75;;;20.50;99.90;;;;;;5019653;28;20199;-51
2022/10/14 00:13:42;;;;;;;2.00;1.90;;;20.40;99.90;;;;;;5031854;28;20195;-50
2022/10/14 00:16:16;;;;;;;1.90;1.67;;;20.40;99.90;;;;;;5016221;28;20595;-51
2022/10/14 00:18:42;;;;;;;2.25;2.05;;;20.40;99.90;;;;;;5022815;28;20212;-52
2022/10/14 00:21:12;;;;;;;3.08;2.20;;;20.40;99.90;;;;;;5020532;28;20199;-49
2022/10/14 00:23:39;;;;;;;1.95;1.70;;;20.40;99.90;;;;;;5014437;28;20204;-51
2022/10/14 00:26:13;;;;;;;2.38;2.17;;;20.40;99.90;;;;;;5021691;28;20231;-49
2022/10/14 00:28:40;;;;;;;2.95;1.70;;;20.40;99.90;;;;;;5019700;28;20191;-49
2022/10/14 00:31:07;;;;;;;1.88;1.77;;;20.40;99.90;;;;;;5019590;28;20192;-53
2022/10/14 00:33:33;;;;;;;1.85;1.67;;;20.40;99.90;;;;;;5025291;28;20575;-50
2022/10/14 00:36:03;;;;;;;1.95;1.85;;;20.40;99.90;;;;;;5013550;28;20200;-49
2022/10/14 00:38:29;;;;;;;1.70;1.60;;;20.40;99.90;;;;;;5020604;28;20196;-48
2022/10/14 00:40:57;;;;;;;1.70;1.60;;;20.40;99.90;;;;;;5021273;28;20254;-49
2022/10/14 00:43:26;;;;;;;1.63;1.52;;;20.40;99.90;;;;;;5013751;28;20196;-49
2022/10/14 00:45:53;;;;;;;1.60;1.50;;;20.30;99.90;;;;;;5011899;28;20283;-50
2022/10/14 00:48:22;;;;;;;1.90;1.80;;;20.40;99.90;;;;;;5023994;28;20199;-48
2022/10/14 00:50:52;;;;;;;1.92;1.45;;;20.30;99.90;;;;;;5021993;28;20196;-49
2022/10/14 00:53:20;;;;;;;1.70;1.60;;;20.30;99.90;;;;;;5020414;28;20196;-49
2022/10/14 00:55:48;;;;;;;1.77;1.63;;;20.30;99.90;;;;;;5012984;28;20192;-50
2022/10/14 00:58:16;;;;;;;2.05;1.85;;;20.30;99.90;;;;;;5018201;28;20206;-51
2022/10/14 01:00:44;;;;;;;1.60;1.50;;;20.30;99.90;;;;;;5013838;28;20216;-50
2022/10/14 01:03:18;;;;;;;1.70;1.40;;;20.30;99.90;;;;;;5012122;28;20545;-49
2022/10/14 01:05:51;;;;;;;2.00;1.80;;;20.30;99.90;;;;;;5010113;28;20188;-45
2022/10/14 01:08:25;;;;;;;1.73;1.63;;;20.30;99.90;;;;;;5012867;28;20199;-50
2022/10/14 01:11:01;;;;;;;1.67;1.58;;;20.30;99.90;;;;;;5013217;28;20397;-46
2022/10/14 01:13:32;;;;;;;1.85;1.75;;;20.30;99.90;;;;;;5024262;28;20204;-49
2022/10/14 01:16:09;;;;;;;2.30;2.20;;;20.30;99.90;;;;;;5020253;28;20211;-53
2022/10/14 01:18:52;;;;;;;1.73;1.63;;;20.30;99.90;;;;;;5022965;28;20227;-49
2022/10/14 01:21:26;;;;;;;2.15;2.05;;;20.20;99.90;;;;;;5016337;28;20191;-49
2022/10/14 01:24:22;;;;;;;1.95;1.60;;;20.20;99.90;;;;;;5020870;28;20199;-49
2022/10/14 01:27:15;;;;;;;1.60;1.50;;;20.20;99.90;;;;;;5018149;28;20214;-49
2022/10/14 01:30:12;;;;;;;3.45;1.90;;;20.20;99.90;;;;;;5013015;28;20199;-46
2022/10/14 01:32:50;;;;;;;2.25;2.10;;;20.20;99.90;;;;;;5012542;28;20651;-50
2022/10/14 01:35:26;;;;;;;1.83;1.70;;;20.20;99.90;;;;;;5019666;28;20200;-46
2022/10/14 01:37:58;;;;;;;1.67;1.40;;;20.20;99.90;;;;;;5018353;28;20214;-47
2022/10/14 01:40:32;;;;;;;2.53;2.10;;;20.20;99.90;;;;;;5023091;28;20228;-49
2022/10/14 01:43:00;;;;;;;1.85;1.75;;;20.20;99.90;;;;;;5022443;28;20192;-44
2022/10/14 01:45:32;;;;;;;2.60;1.85;;;20.20;99.90;;;;;;5017875;28;20199;-49
2022/10/14 01:48:00;;;;;;;2.30;2.10;;;20.20;99.90;;;;;;5020683;28;20682;-44
2022/10/14 01:50:29;;;;;;;1.95;1.85;;;20.20;99.90;;;;;;5023023;28;20594;-48
2022/10/14 01:53:01;;;;;;;2.38;1.90;;;20.10;99.90;;;;;;5028779;28;20192;-50
2022/10/14 01:55:33;;;;;;;1.67;1.55;;;20.20;99.90;;;;;;5023899;28;20200;-50
2022/10/14 01:58:02;;;;;;;1.55;1.45;;;20.10;99.90;;;;;;5017647;28;20571;-44
2022/10/14 02:00:30;;;;;;;1.63;1.52;;;20.10;99.90;;;;;;5015715;28;20262;-52
2022/10/14 02:02:57;;;;;;;2.03;1.90;;;20.10;99.90;;;;;;5021013;28;20630;-49
2022/10/14 02:05:31;;;;;;;1.50;1.40;;;20.10;99.90;;;;;;5024253;28;20288;-48
2022/10/14 02:08:02;;;;;;;1.80;1.70;;;20.10;99.90;;;;;;5022702;28;20622;-51
2022/10/14 02:10:41;;;;;;;1.85;1.75;;;20.10;99.90;;;;;;5021271;28;20262;-46
2022/10/14 02:13:23;;;;;;;1.90;1.80;;;20.10;99.90;;;;;;5018260;28;20192;-49
2022/10/14 02:16:02;;;;;;;1.42;1.33;;;20.10;99.90;;;;;;5019693;28;20200;-49
2022/10/14 02:18:38;;;;;;;1.67;1.58;;;20.00;99.90;;;;;;5027874;28;20203;-47
2022/10/14 02:21:16;;;;;;;2.05;1.85;;;20.00;99.90;;;;;;5018976;28;20228;-50
2022/10/14 02:23:45;;;;;;;2.05;1.85;;;20.00;99.90;;;;;;5022143;28;20196;-49
2022/10/14 02:26:15;;;;;;;1.88;1.70;;;20.00;99.90;;;;;;5016536;28;20623;-46
2022/10/14 02:28:43;;;;;;;1.90;1.80;;;20.00;99.90;;;;;;5021492;28;20204;-48
2022/10/14 02:31:16;;;;;;;1.98;1.77;;;20.00;99.90;;;;;;5016895;28;20200;-54
2022/10/14 02:33:46;;;;;;;1.75;1.65;;;20.00;99.90;;;;;;5017244;28;20251;-49
2022/10/14 02:36:16;;;;;;;1.65;1.55;;;20.00;99.90;;;;;;5016120;28;20199;-50
2022/10/14 02:38:45;;;;;;;1.67;1.58;;;20.00;99.90;;;;;;5021611;28;20208;-50
2022/10/14 02:41:16;;;;;;;1.50;1.40;;;20.00;99.90;;;;;;5012465;28;20207;-46
2022/10/14 02:43:44;;;;;;;1.45;1.35;;;20.00;99.90;;;;;;5027255;28;20192;-48
2022/10/14 02:46:12;;;;;;;1.70;1.60;;;20.00;99.90;;;;;;5017646;28;20250;-49
2022/10/14 02:48:39;;;;;;;1.88;1.77;;;20.00;99.90;;;;;;5017119;28;20234;-47
2022/10/14 02:51:06;;;;;;;2.42;2.00;;;19.90;99.90;;;;;;5024221;28;20203;-48
2022/10/14 02:53:33;;;;;;;1.90;1.75;;;19.90;99.90;;;;;;5023856;28;20192;-49
2022/10/14 02:55:59;;;;;;;1.92;1.83;;;19.90;99.90;;;;;;5015249;28;20197;-46
2022/10/14 02:58:26;;;;;;;1.45;1.35;;;19.90;99.90;;;;;;5017373;28;20203;-46
2022/10/14 03:00:53;;;;;;;1.88;1.58;;;19.90;99.90;;;;;;5019242;28;20207;-50
2022/10/14 03:03:21;;;;;;;1.63;1.52;;;19.90;99.90;;;;;;5020531;28;20197;-44
2022/10/14 03:05:47;;;;;;;1.50;1.40;;;19.90;99.90;;;;;;5012868;28;21249;-42
2022/10/14 03:08:14;;;;;;;1.63;1.52;;;19.90;99.90;;;;;;5015641;28;20246;-48
2022/10/14 03:10:41;;;;;;;1.77;1.60;;;19.90;99.90;;;;;;5016897;28;20195;-52
2022/10/14 03:13:07;;;;;;;1.50;1.40;;;19.90;99.90;;;;;;5022523;28;20599;-48
2022/10/14 03:15:34;;;;;;;2.00;1.90;;;19.90;99.90;;;;;;5024402;28;20621;-49
2022/10/14 03:18:01;;;;;;;1.58;1.48;;;19.80;99.90;;;;;;5023047;28;20212;-50
2022/10/14 03:20:29;;;;;;;1.83;1.73;;;19.80;99.90;;;;;;5024824;28;20254;-49
2022/10/14 03:22:56;;;;;;;1.63;1.52;;;19.80;99.90;;;;;;5026481;28;20192;-46
2022/10/14 03:25:23;;;;;;;1.70;1.58;;;19.80;99.90;;;;;;5026469;28;20606;-49
2022/10/14 03:27:50;;;;;;;1.55;1.45;;;19.80;99.90;;;;;;5018339;28;20290;-50
2022/10/14 03:30:16;;;;;;;1.60;1.50;;;19.90;99.90;;;;;;5019973;28;20606;-50
2022/10/14 03:32:43;;;;;;;1.63;1.52;;;20.00;99.90;;;;;;5017409;28;20196;-51
2022/10/14 03:35:10;;;;;;;1.83;1.52;;;20.40;99.90;;;;;;5015923;28;20196;-51
2022/10/14 03:37:38;;;;;;;1.50;1.40;;;20.70;99.90;;;;;;5023456;28;20715;-49
2022/10/14 03:40:05;;;;;;;1.95;1.67;;;20.80;99.50;;;;;;5019530;28;20204;-50
2022/10/14 03:42:32;;;;;;;1.50;1.40;;;20.90;99.20;;;;;;5020438;28;20207;-46
2022/10/14 03:44:59;;;;;;;1.80;1.70;;;21.00;99.00;;;;;;5022671;28;20243;-48
2022/10/14 03:47:25;;;;;;;1.83;1.70;;;21.00;98.80;;;;;;5014842;28;20690;-48
2022/10/14 03:49:52;;;;;;;1.50;1.40;;;21.00;98.50;;;;;;5018155;28;20196;-49
2022/10/14 03:52:19;;;;;;;1.58;1.48;;;21.00;98.40;;;;;;5018037;28;20192;-47
2022/10/14 03:54:47;;;;;;;1.70;1.50;;;21.00;98.30;;;;;;5024322;28;20196;-50
2022/10/14 03:57:14;;;;;;;1.60;1.50;;;21.00;98.30;;;;;;5026467;28;20204;-49
2022/10/14 03:59:41;;;;;;;1.38;1.27;;;21.00;98.30;;;;;;5016241;28;20196;-45
2022/10/14 04:02:07;;;;;;;1.50;1.40;;;21.00;98.20;;;;;;5022378;28;20192;-48
2022/10/14 04:04:34;;;;;;;1.83;1.67;;;21.00;98.30;;;;;;5018667;28;20648;-49
2022/10/14 04:07:01;;;;;;;1.73;1.63;;;20.90;98.30;;;;;;5022955;28;20234;-47
2022/10/14 04:09:28;;;;;;;2.10;2.00;;;20.90;98.30;;;;;;5015347;28;20199;-46
2022/10/14 04:11:56;;;;;;;1.42;1.30;;;20.80;98.30;;;;;;5020974;28;20195;-49
2022/10/14 04:14:24;;;;;;;1.60;1.50;;;20.80;98.40;;;;;;5024523;28;20227;-49
2022/10/14 04:16:50;;;;;;;1.40;1.30;;;20.80;98.50;;;;;;5019462;28;20223;-49
2022/10/14 04:19:17;;;;;;;1.30;1.20;;;20.70;98.60;;;;;;5020029;28;20279;-47
2022/10/14 04:21:44;;;;;;;1.52;1.42;;;20.70;98.60;;;;;;5018421;28;20664;-49
2022/10/14 04:24:11;;;;;;;1.40;1.30;;;20.70;98.70;;;;;;5021788;28;20192;-45
2022/10/14 04:26:38;;;;;;;1.85;1.75;;;20.60;98.70;;;;;;5020930;28;20289;-49
2022/10/14 04:29:06;;;;;;;1.80;1.67;;;20.60;98.80;;;;;;5020681;28;20224;-50
2022/10/14 04:31:33;;;;;;;3.15;1.40;;;20.60;98.90;;;;;;5019050;28;20215;-48
2022/10/14 04:33:59;;;;;;;1.90;1.58;;;20.50;98.90;;;;;;5021933;28;20621;-48
2022/10/14 04:36:26;;;;;;;2.15;1.60;;;20.50;98.90;;;;;;5018529;28;20204;-49
2022/10/14 04:38:53;;;;;;;1.75;1.58;;;20.50;99.00;;;;;;5017628;28;20204;-44
2022/10/14 04:41:19;;;;;;;1.42;1.33;;;20.50;99.00;;;;;;5018294;28;20221;-46
2022/10/14 04:43:46;;;;;;;1.60;1.50;;;20.50;99.10;;;;;;5027465;28;20659;-49
2022/10/14 04:46:14;;;;;;;1.70;1.60;;;20.50;99.10;;;;;;5019549;28;20201;-50
2022/10/14 04:48:41;;;;;;;1.23;1.13;;;20.40;99.10;;;;;;5021426;28;20215;-49
2022/10/14 04:51:07;;;;;;;1.75;1.48;;;20.40;99.40;;;;;;5023672;28;20188;-45
2022/10/14 04:53:34;;;;;;;1.65;1.55;;;20.40;99.10;;;;;;5024467;28;20554;-48
2022/10/14 04:56:01;;;;;;;1.42;1.33;;;20.40;99.20;;;;;;5019299;28;20200;-53
2022/10/14 04:58:27;;;;;;;1.48;1.38;;;20.40;99.20;;;;;;5019454;28;20207;-46
2022/10/14 05:00:54;;;;;;;1.50;1.40;;;20.40;99.20;;;;;;5014470;28;20196;-46
2022/10/14 05:03:23;;;;;;;1.50;1.40;;;20.40;99.20;;;;;;5014758;28;20716;-48
2022/10/14 05:05:50;;;;;;;1.60;1.50;;;20.40;99.30;;;;;;5020872;28;20199;-47
2022/10/14 05:08:17;;;;;;;1.33;1.23;;;20.40;99.20;;;;;;5014965;28;20712;-43
2022/10/14 05:10:44;;;;;;;1.30;1.20;;;20.40;99.20;;;;;;5017119;28;20571;-45
2022/10/14 05:13:11;;;;;;;1.48;1.38;;;20.40;99.20;;;;;;5025616;28;20202;-47
2022/10/14 05:15:38;;;;;;;1.55;1.45;;;20.40;99.20;;;;;;5022673;28;20615;-46
2022/10/14 05:18:04;;;;;;;1.15;1.00;;;20.40;99.20;;;;;;5021704;28;20219;-50
2022/10/14 05:20:32;;;;;;;1.40;1.23;;;20.40;99.10;;;;;;5017013;28;20203;-49
2022/10/14 05:22:59;;;;;;;1.83;1.73;;;20.50;99.20;;;;;;5022889;28;20199;-49
2022/10/14 05:25:26;;;;;;;1.95;1.40;;;20.40;99.10;;;;;;5026460;28;20195;-42
2022/10/14 05:27:53;;;;;;;1.30;1.20;;;20.50;99.10;;;;;;5025106;28;20250;-51
2022/10/14 05:30:19;;;;;;;1.55;1.45;;;20.40;99.40;;;;;;5019318;28;20192;-49
2022/10/14 05:32:46;;;;;;;1.58;1.48;;;20.40;99.10;;;;;;5018800;28;20204;-46
2022/10/14 05:35:13;;;;;;;2.30;1.20;;;20.50;99.10;;;;;;5019982;28;20192;-49
2022/10/14 05:37:41;;;;;;;1.60;1.50;;;20.50;99.10;;;;;;5024649;28;20199;-51
2022/10/14 05:40:10;;;;;;;1.15;1.05;;;20.50;99.10;;;;;;5021134;28;20196;-51
2022/10/14 05:42:37;;;;;;;1.58;1.48;;;20.50;99.00;;;;;;5013692;28;20207;-46
2022/10/14 05:45:04;;;;;;;1.65;1.55;;;20.50;99.00;;;;;;5021800;28;20602;-46
2022/10/14 05:47:31;;;;;;;1.65;1.55;;;20.50;99.30;;;;;;5020640;28;20618;-44
2022/10/14 05:49:58;;;;;;;1.25;1.15;;;20.50;99.00;;;;;;5026361;28;20196;-44
2022/10/14 05:52:25;;;;;;;1.60;1.50;;;20.40;99.00;;;;;;5018102;28;20271;-44
2022/10/14 05:54:53;;;;;;;1.58;1.48;;;20.40;99.00;;;;;;5020663;28;20253;-45
2022/10/14 05:57:19;;;;;;;1.15;1.05;;;20.40;99.00;;;;;;5026113;28;20191;-45
2022/10/14 05:59:46;;;;;;;1.65;1.55;;;20.40;99.00;;;;;;5024089;28;20195;-45
2022/10/14 06:02:13;;;;;;;1.30;1.20;;;20.40;99.00;;;;;;5024025;28;20199;-48
2022/10/14 06:04:41;;;;;;;1.30;1.20;;;20.40;99.00;;;;;;5021129;28;21416;-46
2022/10/14 06:07:09;;;;;;;1.30;1.20;;;20.40;99.00;;;;;;5020490;28;20192;-45
2022/10/14 06:09:36;;;;;;;1.48;1.38;;;20.40;99.10;;;;;;5022237;28;20686;-45
2022/10/14 06:12:04;;;;;;;1.50;1.13;;;20.40;99.10;;;;;;5026264;28;20678;-46
2022/10/14 06:14:31;;;;;;;1.85;1.30;;;20.40;99.20;;;;;;5026526;28;20200;-41
2022/10/14 06:16:58;;;;;;;1.85;1.70;;;20.40;99.30;;;;;;5020044;28;20219;-44
2022/10/14 06:19:24;;;;;;;1.10;1.00;;;20.30;99.30;;;;;;5024393;28;20192;-44
2022/10/14 06:21:51;;;;;;;1.52;1.23;;;20.30;99.50;;;;;;5031360;28;20706;-41
2022/10/14 06:24:18;;;;;;;1.25;1.15;;;20.20;99.60;;;;;;5021023;28;20658;-47
2022/10/14 06:26:47;;;;;;;1.85;1.40;;;20.20;99.70;;;;;;5019200;28;20203;-47
2022/10/14 06:29:15;;;;;;;1.40;1.30;;;20.20;99.70;;;;;;5022559;28;20762;-43
2022/10/14 06:31:42;;;;;;;1.30;1.20;;;20.20;99.70;;;;;;5020322;28;20200;-43
2022/10/14 06:34:08;;;;;;;1.50;1.40;;;20.20;99.70;;;;;;5022056;28;20635;-48
2022/10/14 06:36:36;;;;;;;1.30;1.10;;;20.30;99.60;;;;;;5023736;28;20222;-42
2022/10/14 06:39:04;;;;;;;1.45;1.35;;;20.30;99.50;;;;;;5017713;28;20201;-47
2022/10/14 06:41:31;;;;;;;1.40;1.30;;;20.30;99.50;;;;;;5028193;28;20231;-49
2022/10/14 06:43:58;;;;;;;1.42;1.33;;;20.30;99.40;;;;;;5022670;28;20628;-44
2022/10/14 06:46:26;;;;;;;1.60;1.50;;;20.40;99.40;;;;;;5013650;28;20196;-42
2022/10/14 06:48:53;;;;;;;1.30;1.10;;;20.40;99.30;;;;;;5018814;28;20241;-44
2022/10/14 06:51:20;;;;;;;1.65;1.55;;;20.40;99.30;;;;;;5021686;28;20675;-44
2022/10/14 06:53:47;;;;;;;1.50;1.40;;;20.40;99.20;;;;;;5026227;28;20200;-47
2022/10/14 06:56:13;;;;;;;1.40;1.10;;;20.40;99.20;;;;;;5021344;28;20226;-42
2022/10/14 06:58:40;;;;;;;1.38;1.27;;;20.40;99.20;;;;;;5019018;28;20196;-43
2022/10/14 07:01:08;;;;;;;1.20;1.10;;;20.40;99.10;;;;;;5015429;28;20211;-47
2022/10/14 07:03:37;;;;;;;1.92;1.38;;;20.40;99.10;;;;;;5025637;28;20195;-47
2022/10/14 07:06:05;;;;;;;1.60;1.33;;;20.40;99.10;;;;;;5019667;28;20228;-48
2022/10/14 07:08:32;;;;;;;1.38;1.23;;;20.40;99.10;;;;;;5020391;28;20227;-42
2022/10/14 07:10:59;;;;;;;1.27;1.17;;;20.40;99.20;;;;;;5016838;28;20197;-46
2022/10/14 07:13:26;;;;;;;1.58;1.48;;;20.40;99.20;;;;;;5021418;28;20204;-43
2022/10/14 07:15:52;;;;;;;1.55;1.45;;;20.40;99.20;;;;;;5024011;28;20279;-45
2022/10/14 07:18:19;;;;;;;1.30;1.20;;;20.40;99.10;;;;;;5028869;28;20202;-48
2022/10/14 07:20:47;;;;;;;1.20;1.10;;;20.40;99.00;;;;;;5026257;28;20184;-44
2022/10/14 07:23:14;;;;;;;1.30;1.20;;;20.50;99.00;;;;;;5023028;28;20287;-45
2022/10/14 07:25:41;;;;;;;1.60;1.50;;;20.50;98.90;;;;;;5021266;28;20207;-48
2022/10/14 07:28:07;;;;;;;1.33;1.23;;;20.50;98.90;;;;;;5015639;28;20204;-46
2022/10/14 07:30:34;;;;;;;1.42;1.33;;;20.50;98.90;;;;;;5014168;28;20459;-44
2022/10/14 07:33:01;;;;;;;1.30;1.20;;;20.50;98.80;;;;;;5026725;28;20207;-47
2022/10/14 07:35:28;;;;;;;1.40;1.20;;;20.50;98.80;;;;;;5019790;28;20466;-43
2022/10/14 07:37:59;;;;;;;1.40;1.20;;;20.50;98.80;;;;;;5019634;28;20206;-45
2022/10/14 07:40:26;;;;;;;1.60;1.38;;;20.50;98.80;;;;;;5020273;28;20211;-46
2022/10/14 07:42:52;;;;;;;1.40;1.30;;;20.50;98.80;;;;;;5022901;28;20588;-44
2022/10/14 07:45:20;;;;;;;1.30;1.17;;;20.50;98.80;;;;;;5023832;28;20204;-46
2022/10/14 07:47:48;;;;;;;1.45;1.35;;;20.50;98.70;;;;;;5015557;28;20243;-47
2022/10/14 07:50:15;;;;;;;1.35;1.17;;;20.50;98.80;;;;;;5027670;28;20217;-46
2022/10/14 07:52:42;;;;;;;1.13;1.02;;;20.50;98.80;;;;;;5030290;28;20654;-43
2022/10/14 07:55:11;;;;;;;1.42;1.33;;;20.50;98.70;;;;;;5019251;28;20658;-48
2022/10/14 07:57:37;;;;;;;1.55;1.45;;;20.50;98.70;;;;;;5030373;28;20697;-47
2022/10/14 08:00:05;;;;;;;1.40;1.30;;;20.50;98.70;;;;;;5025486;28;20200;-50
2022/10/14 08:02:32;;;;;;;1.50;1.40;;;20.50;98.70;;;;;;5024729;28;20195;-44
2022/10/14 08:04:59;;;;;;;1.20;1.10;;;20.50;98.70;;;;;;5022838;28;20202;-43
2022/10/14 08:07:26;;;;;;;1.33;1.20;;;20.50;98.70;;;;;;5030357;28;20184;-47
2022/10/14 08:09:53;;;;;;;1.50;1.40;;;20.50;98.70;;;;;;5017238;28;20215;-47
2022/10/14 08:12:21;;;;;;;1.40;1.30;;;20.50;98.70;;;;;;5029450;28;20603;-46
2022/10/14 08:14:48;;;;;;;1.27;1.17;;;20.50;98.60;;;;;;5019752;28;20200;-43
2022/10/14 08:17:14;;;;;;;1.27;1.17;;;20.50;98.70;;;;;;5019242;28;20220;-46
2022/10/14 08:19:41;;;;;;;1.23;1.13;;;20.50;98.60;;;;;;5024888;28;20200;-47
2022/10/14 08:22:09;;;;;;;1.65;1.55;;;20.50;98.60;;;;;;5027205;28;20203;-43
2022/10/14 08:24:35;;;;;;;1.55;1.45;;;20.50;98.60;;;;;;5011843;28;20197;-50
2022/10/14 08:27:04;;;;;;;1.63;1.25;;;20.50;98.60;;;;;;5020084;28;20609;-48
2022/10/14 08:29:32;;;;;;;1.25;1.15;;;20.50;98.60;;;;;;5021781;28;20280;-46
2022/10/14 08:31:59;;;;;;;1.33;1.17;;;20.50;98.60;;;;;;5019166;28;20231;-47
2022/10/14 08:34:26;;;;;;;1.10;1.00;;;20.50;98.50;;;;;;5023177;28;20231;-44
2022/10/14 08:36:53;;;;;;;1.55;1.10;;;20.50;98.50;;;;;;5022639;28;20204;-45
2022/10/14 08:39:21;;;;;;;1.20;1.10;;;20.50;98.50;;;;;;5022737;28;20199;-46
2022/10/14 08:42:05;;;;;;;1.52;1.30;;;20.50;98.50;;;;;;5027950;28;20200;-44
2022/10/14 08:44:41;;;;;;;3.42;1.20;;;20.50;98.50;;;;;;5022762;28;20685;-47
2022/10/14 08:47:12;;;;;;;5.22;1.55;;;20.60;98.90;;;;;;5016845;28;20196;-48
2022/10/14 08:49:52;;;;;;;5.68;1.48;;;20.60;99.40;;;;;;5025148;28;20309;-43
2022/10/14 08:52:23;;;;;;;3.90;1.50;;;20.60;99.90;;;;;;5021169;28;20192;-48
2022/10/14 08:54:54;;;;;;;2.40;1.30;;;20.60;99.90;;;;;;5027907;28;20618;-44
2022/10/14 08:57:23;;;;;;;1.52;1.27;;;20.70;99.90;;;;;;5030025;28;20213;-46
2022/10/14 08:59:51;;;;;;;1.38;1.27;;;20.70;99.90;;;;;;5029734;28;20199;-43
2022/10/14 09:02:30;;;;;;;2.40;1.30;;;20.70;99.90;;;;;;5021519;28;20207;-43
2022/10/14 09:05:00;;;;;;;3.10;1.60;;;20.70;99.90;;;;;;5017999;28;20198;-47
2022/10/14 09:07:27;;;;;;;1.67;1.57;;;20.70;99.90;;;;;;5022113;28;20459;-45
2022/10/14 09:10:00;;;;;;;2.55;1.30;;;20.70;99.90;;;;;;5022132;28;21019;-47
2022/10/14 09:12:31;;;;;;;3.83;1.10;;;20.70;99.90;;;;;;5029161;28;20195;-46
2022/10/14 09:15:07;;;;;;;2.30;1.30;;;20.60;99.90;;;;;;5023341;28;20603;-45
2022/10/14 09:17:39;;;;;;;7.07;1.40;;;20.60;99.90;;;;;;5023642;28;20269;-43
2022/10/14 09:20:16;;;;;;;2.30;1.92;;;20.60;99.90;;;;;;5026170;28;20520;-43
2022/10/14 09:22:43;;;;;;;1.27;1.15;;;20.60;99.90;;;;;;5022499;28;20195;-46
2022/10/14 09:25:13;;;;;;;2.45;1.30;;;20.60;99.90;;;;;;5022533;28;20188;-42
2022/10/14 09:27:40;;;;;;;5.10;1.45;;;20.60;99.90;;;;;;5023230;28;20658;-47
2022/10/14 09:30:14;;;;;;;1.30;1.08;;;20.60;99.90;;;;;;5017922;28;20213;-44
2022/10/14 09:32:43;;;;;;;1.53;1.43;;;20.60;99.90;;;;;;5022533;28;20191;-46
2022/10/14 09:35:16;;;;;;;2.47;1.30;;;20.60;99.90;;;;;;5014525;28;20462;-46
2022/10/14 09:37:43;;;;;;;1.15;1.00;;;20.70;99.90;;;;;;5014363;28;20476;-43
2022/10/14 09:40:17;;;;;;;1.20;1.10;;;20.70;99.90;;;;;;5022020;28;20567;-48
2022/10/14 09:42:49;;;;;;;1.23;0.98;;;20.70;99.90;;;;;;5017126;28;20199;-46
2022/10/14 09:45:21;;;;;;;1.20;1.00;;;20.70;99.90;;;;;;5016987;28;20199;-46
2022/10/14 09:47:54;;;;;;;1.10;1.00;;;20.70;99.90;;;;;;5028814;28;20219;-45
2022/10/14 09:50:36;;;;;;;1.42;1.33;;;20.70;99.90;;;;;;5019529;28;20231;-47
2022/10/14 09:53:04;;;;;;;1.45;1.23;;;20.70;99.90;;;;;;5028892;28;20196;-43
2022/10/14 09:55:32;;;;;;;1.43;1.17;;;20.70;99.90;;;;;;5014842;28;20199;-47
2022/10/14 09:58:04;;;;;;;1.63;1.20;;;20.70;99.90;;;;;;5025278;28;20450;-45
2022/10/14 10:00:36;;;;;;;1.23;1.13;;;20.80;99.90;;;;;;5017108;28;20596;-43
2022/10/14 10:03:03;;;;;;;2.50;1.20;;;20.80;99.90;;;;;;5023804;28;20456;-42
2022/10/14 10:05:33;;;;;;;1.10;1.00;;;20.80;99.90;;;;;;5015953;28;20199;-44
2022/10/14 10:08:06;;;;;;;2.70;1.77;;;20.90;99.90;;;;;;5016691;28;20513;-46
2022/10/14 10:10:34;;;;;;;1.63;1.17;;;20.90;99.70;;;;;;5021389;28;20903;-46
2022/10/14 10:13:02;;;;;;;1.37;1.10;;;21.00;99.60;;;;;;5029793;28;20481;-46
2022/10/14 10:15:29;;;;;;;1.20;1.10;;;21.00;99.50;;;;;;5026104;28;20451;-43
2022/10/14 10:17:57;;;;;;;1.42;1.33;;;21.00;99.40;;;;;;5023326;28;20564;-46
2022/10/14 10:20:30;;;;;;;2.63;1.23;;;21.00;99.50;;;;;;5035649;28;20622;-46
2022/10/14 10:22:58;;;;;;;1.10;0.90;;;21.00;99.20;;;;;;5028289;28;20443;-45
2022/10/14 10:25:27;;;;;;;2.13;1.20;;;21.00;99.20;;;;;;5020429;28;20462;-47
2022/10/14 10:27:57;;;;;;;1.23;1.13;;;21.00;99.10;;;;;;5029938;28;20454;-46
2022/10/14 10:30:26;;;;;;;1.33;1.10;;;21.00;99.10;;;;;;5027968;28;20481;-46
2022/10/14 10:33:17;;;;;;;1.40;1.13;;;21.00;99.10;;;;;;5028385;28;20941;-46
2022/10/14 10:36:00;;;;;;;1.20;1.03;;;21.00;99.00;;;;;;5017462;28;20494;-44
2022/10/14 10:38:31;;;;;;;1.50;1.20;;;21.00;99.00;;;;;;5022991;28;20466;-45
2022/10/14 10:41:15;;;;;;;1.30;1.10;;;20.90;98.90;;;;;;5026012;28;20519;-44
2022/10/14 10:44:05;;;;;;;1.17;1.07;;;21.00;99.00;;;;;;5019773;28;20461;-44
2022/10/14 10:46:44;;;;;;;1.10;0.90;;;21.00;99.30;;;;;;5025501;28;20879;-45
2022/10/14 10:49:21;;;;;;;1.30;1.00;;;21.00;99.70;;;;;;5011028;28;20486;-43
2022/10/14 10:51:54;;;;;;;3.10;1.13;;;21.00;99.80;;;;;;5025975;28;20548;-54
2022/10/14 10:54:30;;;;;;;1.80;1.20;;;21.00;99.90;;;;;;5020252;28;20462;-52
2022/10/14 10:57:01;;;;;;;1.97;1.47;;;21.00;99.90;;;;;;5022038;28;20496;-54
2022/10/14 10:59:47;;;;;;;5.13;1.30;;;21.00;99.90;;;;;;5025255;28;20475;-51
2022/10/14 11:02:48;;;;;;;1.47;1.30;;;21.10;99.90;;;;;;5018047;28;20199;-51
2022/10/14 11:05:22;;;;;;;2.43;1.40;;;21.30;99.90;;;;;;5023688;28;20461;-48
2022/10/14 11:13:44;;;;;;;1.77;1.10;;;21.70;99.90;;;;;;5019798;28;20454;-43
2022/10/14 11:16:19;;;;;;;1.70;0.93;;;21.90;99.90;;;;;;5018706;28;20471;-44
2022/10/14 11:18:49;;;;;;;1.30;1.03;;;21.90;99.90;;;;;;5023405;28;20437;-43
2022/10/14 11:21:28;;;;;;;1.50;1.17;;;21.90;99.90;;;;;;5028798;28;20818;-44
2022/10/14 11:24:05;;;;;;;1.57;1.20;;;21.90;99.80;;;;;;5030311;28;20450;-44
2022/10/14 11:26:54;;;;;;;1.67;1.43;;;21.90;99.70;;;;;;5028277;28;20469;-44
2022/10/14 11:29:41;;;;;;;1.77;1.57;;;21.90;99.70;;;;;;5028358;28;20463;-45
2022/10/14 11:32:17;;;;;;;1.10;0.97;;;21.90;99.60;;;;;;5021492;28;20482;-45
2022/10/14 11:34:53;;;;;;;1.33;1.20;;;22.00;99.60;;;;;;5027503;28;20481;-44
2022/10/14 11:37:29;;;;;;;1.30;1.10;;;22.00;99.60;;;;;;5030231;28;20522;-45
2022/10/14 11:40:00;;;;;;;1.20;1.10;;;22.00;99.50;;;;;;5030666;28;20502;-44
2022/10/14 11:42:38;;;;;;;1.13;0.90;;;22.00;99.40;;;;;;5029307;28;20458;-44
2022/10/14 11:45:28;;;;;;;1.37;1.10;;;22.00;99.40;;;;;;5028984;28;20814;-44
2022/10/14 11:48:02;;;;;;;2.53;0.80;;;22.00;99.30;;;;;;5030121;28;20996;-43
2022/10/14 11:50:36;;;;;;;1.20;1.07;;;22.00;99.10;;;;;;5030763;28;20478;-44
2022/10/14 11:53:12;;;;;;;1.30;1.20;;;22.10;99.00;;;;;;5027424;28;20462;-44
2022/10/14 11:55:43;;;;;;;1.50;1.40;;;22.10;98.90;;;;;;5029188;28;20858;-44
2022/10/14 11:58:14;;;;;;;1.37;0.97;;;22.10;99.10;;;;;;5025800;28;20973;-45
2022/10/14 12:01:03;;;;;;;1.77;1.30;;;22.20;98.70;;;;;;5025271;28;20918;-44
2022/10/14 12:03:44;;;;;;;1.07;0.90;;;22.20;98.50;;;;;;5024261;28;20474;-44
2022/10/14 12:06:16;;;;;;;1.00;0.80;;;22.20;98.40;;;;;;5023795;28;20461;-45
2022/10/14 12:08:50;;;;;;;1.10;1.00;;;22.20;98.30;;;;;;5029467;28;20470;-45
2022/10/14 12:11:27;;;;;;;1.83;1.10;;;22.20;98.20;;;;;;5032307;28;20478;-45
2022/10/14 12:14:00;;;;;;;0.90;0.70;;;22.30;98.10;;;;;;5028027;28;20454;-48
2022/10/14 12:16:27;;;;;;;1.30;1.00;;;22.30;98.10;;;;;;5024694;28;20482;-49
2022/10/14 12:18:56;;;;;;;1.40;0.87;;;22.30;97.90;;;;;;5030122;28;21048;-51
2022/10/14 12:21:32;;;;;;;2.27;1.10;;;22.30;97.90;;;;;;5032120;28;20447;-47
2022/10/14 12:24:05;;;;;;;1.30;0.90;;;22.40;98.30;;;;;;5029113;28;20508;-45
2022/10/14 12:26:49;;;;;;;1.43;1.30;;;22.40;98.30;;;;;;5029679;28;20471;-49
2022/10/14 12:29:20;;;;;;;1.93;1.00;;;22.40;98.20;;;;;;5029385;28;20916;-51
2022/10/14 12:32:06;;;;;;;2.00;1.63;;;22.40;98.00;;;;;;5031583;28;20474;-48
2022/10/14 12:34:35;;;;;;;1.20;0.80;;;22.40;98.00;;;;;;5021522;28;20562;-45
2022/10/14 12:37:37;;;;;;;2.53;0.80;;;22.40;98.00;;;;;;5022687;28;21027;-46
2022/10/14 12:40:29;;;;;;;1.33;1.00;;;22.50;98.00;;;;;;5019691;28;20470;-46
2022/10/14 12:43:16;;;;;;;1.93;0.90;;;22.50;98.00;;;;;;5023222;28;21081;-48
2022/10/14 12:45:59;;;;;;;1.10;1.00;;;22.50;97.90;;;;;;5022026;28;20458;-50
2022/10/14 12:48:29;;;;;;;1.20;0.90;;;22.50;97.80;;;;;;5026639;28;20462;-48
2022/10/14 12:51:07;;;;;;;3.20;2.47;;;22.50;97.80;;;;;;5029648;28;20536;-41
2022/10/14 12:53:34;;;;;;;3.80;3.23;;;21.30;99.90;;;;;;5028684;28;20447;-41
2022/10/14 12:56:04;;;;;;;2.83;2.40;;;20.70;99.90;;;;;;5029133;28;20455;-41
2022/10/14 12:58:34;;;;;;;4.30;3.90;;;20.80;99.90;;;;;;5024139;28;20466;-38
2022/10/14 13:01:05;;;;;;;5.10;4.23;;;20.40;99.90;;;;;;5021176;28;20196;-40
2022/10/14 13:03:39;;;;;;;5.72;4.10;;;20.30;99.90;;;;;;5027807;28;20454;-38
2022/10/14 13:06:29;;;;;;;6.43;4.63;;;20.00;99.90;;;;;;5030843;28;20606;-41
2022/10/14 13:09:39;;;;;;;3.97;3.58;;;19.30;99.90;;;;;;5024265;28;20265;-40
2022/10/14 13:12:44;;;;;;;10.35;9.30;;;19.50;99.90;;;;;;5028005;28;20191;-41